Red Deer Regional Airport
CYQF : now visible

Airfield :











YOU CAN JOIN US ON...

 
LOGIN :

Register | Disclaimer

   EN    FR    IT 

 









Legend :    VFR   Marginal VFR   IFR   Intensive IFR   Very Intensive IFR
Visi :
Ceiling :
>= 8 km
>= 3000ft
5 to 8 km
1000 to 3000 ft
1500m to 5 km
500 to 1000 ft
800 to 1500m
200 to 500 ft
< 800m
< 200 ft
Symbols :   Thunderstorms  Fog  Heavy snow  Heavy precipitations  Wind > 20 kt






- Airport Elevation : 2968 ft
- IATA code : YQF


CYQF - Red Deer Regional

CURRENT METAR :
  • 212000Z AUTO VRB04G15KT 9SM CLR 17/M08 A2976 RMK SLP097 DENSITY ALT 4100FT

EXPIRED METARs :
  • 211900Z AUTO 23011G17KT 200V280 9SM CLR 17/M08 A2979 RMK SLP108 DENSITY ALT 4100FT
  • 211800Z AUTO 27005KT 250V340 9SM CLR 15/M08 A2982 RMK SLP120 DENSITY ALT 3900FT

TAF TAF CYQF
Valid from the 21 at 18:00 until the 22 at 06:00 UTC


211738Z 2118/2206 26008KT P6SM SKC
FM220000 26006KT P6SM SCT090
TEMPO 2200/2205 P6SM -SHRA VCTS BKN080CB
BECMG 2201/2203 33012G22KT
FM220500 32015G25KT P6SM -RA SCT012 OVC030 RMK FCST BASED ON AUTO OBS. NXT FCST BY 220000Z
CZEG FIR / North America



MET'MAP, your aeronautical weather chart ! - Copyright ORBIFLY December 2007 - Disclaimer

ORBIFLY MET'MAP TEAM :

Programming & Development : Alexandra Zaïnal
Concept & original design : Baudouin d'Aumeries
Assistance for programming : Marc-Olivier Méhu
Technical & hardware support : Manuel Goepfert

Contact : metmap@orbifly.com




SOURCES & CREDITS :

   NOAA       Earth
Advisory